createdAt,value
2017-08-22T00:01:04.184Z,20.10
2017-08-22T00:03:38.025Z,20.00
2017-08-22T00:06:06.280Z,20.00
2017-08-22T00:08:34.521Z,19.90
2017-08-22T00:11:02.781Z,19.90
2017-08-22T00:13:31.256Z,19.90
2017-08-22T00:15:59.503Z,19.90
2017-08-22T00:18:27.765Z,19.90
2017-08-22T00:20:56.000Z,19.90
2017-08-22T00:23:24.227Z,19.90
2017-08-22T00:25:52.508Z,19.80
2017-08-22T00:28:21.013Z,19.60
2017-08-22T00:30:49.288Z,19.50
2017-08-22T00:33:17.827Z,19.60
2017-08-22T00:35:46.063Z,19.60
2017-08-22T00:38:15.463Z,19.70
2017-08-22T00:40:43.739Z,19.80
2017-08-22T00:43:11.972Z,19.80
2017-08-22T00:45:40.203Z,19.80
2017-08-22T00:48:08.460Z,19.80
2017-08-22T00:50:37.100Z,19.80
2017-08-22T00:53:05.328Z,19.80
2017-08-22T00:55:33.599Z,19.80
2017-08-22T00:58:01.832Z,19.80
2017-08-22T01:00:30.080Z,19.90
2017-08-22T01:02:58.484Z,20.00
2017-08-22T01:05:26.722Z,20.00
2017-08-22T01:07:54.939Z,19.90
2017-08-22T01:10:23.226Z,19.90
2017-08-22T01:12:51.461Z,19.80
2017-08-22T01:15:19.696Z,19.70
2017-08-22T01:17:47.959Z,19.60
2017-08-22T01:20:16.205Z,19.50
2017-08-22T01:22:44.720Z,19.50
2017-08-22T01:25:13.009Z,19.50
2017-08-22T01:27:41.230Z,19.40
2017-08-22T01:30:09.456Z,19.30
2017-08-22T01:32:37.727Z,19.40
2017-08-22T01:35:06.203Z,19.40
2017-08-22T01:37:34.438Z,19.40
2017-08-22T01:40:03.512Z,19.40
2017-08-22T01:42:31.752Z,19.50
2017-08-22T01:44:59.991Z,19.50
2017-08-22T01:47:28.281Z,19.40
2017-08-22T01:49:56.520Z,19.30
2017-08-22T01:52:24.753Z,19.20
2017-08-22T01:54:53.018Z,19.10
2017-08-22T01:57:21.520Z,19.00
2017-08-22T01:59:49.736Z,18.90
2017-08-22T02:02:18.005Z,18.90
2017-08-22T02:04:46.545Z,18.90
2017-08-22T02:07:14.762Z,18.90
2017-08-22T02:09:43.251Z,19.00
2017-08-22T02:12:11.492Z,19.00
2017-08-22T02:14:39.724Z,19.00
2017-08-22T02:17:07.990Z,19.10
2017-08-22T02:19:36.246Z,19.10
2017-08-22T02:22:04.479Z,19.10
2017-08-22T02:24:32.736Z,18.90
2017-08-22T02:27:00.972Z,18.80
2017-08-22T02:29:29.207Z,18.80
2017-08-22T02:31:57.469Z,18.80
2017-08-22T02:34:25.744Z,18.90
2017-08-22T02:36:53.979Z,18.80
2017-08-22T02:39:22.248Z,18.70
2017-08-22T02:41:50.480Z,18.70
2017-08-22T02:44:18.708Z,18.70
2017-08-22T02:46:47.307Z,18.70
2017-08-22T02:49:15.561Z,18.80
2017-08-22T02:51:43.787Z,18.80
2017-08-22T02:54:12.078Z,18.90
2017-08-22T02:56:40.300Z,18.80
2017-08-22T02:59:08.535Z,18.70
2017-08-22T03:01:36.795Z,18.70
2017-08-22T03:04:05.268Z,18.70
2017-08-22T03:06:33.500Z,18.60
2017-08-22T03:09:01.894Z,18.70
2017-08-22T03:11:30.116Z,18.80
2017-08-22T03:13:58.343Z,18.80
2017-08-22T03:16:27.056Z,18.90
2017-08-22T03:18:55.332Z,18.80
2017-08-22T03:21:23.560Z,18.70
2017-08-22T03:23:51.819Z,18.90
2017-08-22T03:26:20.047Z,18.90
2017-08-22T03:28:48.276Z,18.90
2017-08-22T03:31:16.561Z,18.80
2017-08-22T03:33:44.788Z,18.80
2017-08-22T03:36:13.015Z,18.90
2017-08-22T03:38:41.350Z,19.00
2017-08-22T03:41:09.579Z,19.00
2017-08-22T03:43:37.816Z,18.90
2017-08-22T03:46:06.471Z,18.90
2017-08-22T03:48:34.708Z,18.90
2017-08-22T03:51:02.945Z,19.00
2017-08-22T03:53:31.216Z,19.00
2017-08-22T03:55:59.452Z,18.90
2017-08-22T03:58:31.547Z,18.90
2017-08-22T04:00:59.940Z,18.90
2017-08-22T04:03:28.201Z,18.90
2017-08-22T04:05:56.435Z,18.80
2017-08-22T04:08:24.855Z,18.80
2017-08-22T04:10:53.089Z,18.90
2017-08-22T04:13:21.339Z,18.90
2017-08-22T04:15:49.858Z,19.00
2017-08-22T04:18:18.087Z,18.90
2017-08-22T04:20:46.323Z,18.90
2017-08-22T04:23:14.739Z,18.90
2017-08-22T04:25:43.235Z,19.00
2017-08-22T04:28:11.590Z,19.10
2017-08-22T04:30:39.881Z,19.20
2017-08-22T04:33:08.134Z,19.30
2017-08-22T04:35:45.320Z,19.40
2017-08-22T04:38:13.560Z,19.30
2017-08-22T04:40:41.868Z,19.10
2017-08-22T04:43:10.304Z,19.10
2017-08-22T04:45:41.789Z,19.20
2017-08-22T04:48:10.059Z,19.20
2017-08-22T04:50:38.381Z,19.30
2017-08-22T04:53:10.592Z,19.30
2017-08-22T04:55:38.856Z,19.30
2017-08-22T04:58:07.098Z,19.20
2017-08-22T05:00:35.354Z,19.20
2017-08-22T05:03:03.615Z,19.30
2017-08-22T05:05:31.873Z,19.30
2017-08-22T05:08:00.110Z,19.40
2017-08-22T05:10:28.363Z,19.40
2017-08-22T05:12:57.423Z,19.20
2017-08-22T05:15:25.902Z,19.10
2017-08-22T05:17:54.783Z,19.10
2017-08-22T05:20:23.373Z,19.00
2017-08-22T05:22:51.604Z,19.00
2017-08-22T05:25:19.995Z,19.00
2017-08-22T05:27:48.242Z,19.10
2017-08-22T05:30:16.592Z,19.20
2017-08-22T05:32:45.012Z,19.40
2017-08-22T05:35:13.256Z,19.50
2017-08-22T05:37:42.652Z,19.70
2017-08-22T05:40:10.939Z,19.80
2017-08-22T05:42:39.282Z,19.90
2017-08-22T05:45:07.573Z,20.10
2017-08-22T05:47:35.860Z,20.10
2017-08-22T05:50:04.188Z,20.30
2017-08-22T05:52:32.419Z,20.20
2017-08-22T05:55:00.829Z,20.10
2017-08-22T05:57:29.067Z,19.90
2017-08-22T05:59:57.425Z,20.00
2017-08-22T06:02:25.702Z,20.00
2017-08-22T06:04:53.944Z,20.10
2017-08-22T06:07:22.192Z,20.20
2017-08-22T06:09:50.793Z,20.20
2017-08-22T06:12:19.082Z,20.40
2017-08-22T06:14:48.123Z,20.50
2017-08-22T06:17:16.673Z,20.70
2017-08-22T06:19:45.176Z,20.90
2017-08-22T06:22:13.787Z,21.20
2017-08-22T06:24:42.621Z,21.20
2017-08-22T06:27:10.852Z,21.40
2017-08-22T06:29:39.086Z,21.40
2017-08-22T06:32:07.405Z,21.60
2017-08-22T06:34:35.653Z,21.70
2017-08-22T06:37:04.229Z,22.00
2017-08-22T06:39:32.486Z,22.20
2017-08-22T06:42:00.739Z,22.40
2017-08-22T06:44:28.977Z,22.50
2017-08-22T06:46:57.253Z,22.80
2017-08-22T06:49:25.492Z,22.90
2017-08-22T06:51:53.728Z,23.00
2017-08-22T06:54:22.996Z,23.20
2017-08-22T06:56:51.225Z,23.40
2017-08-22T06:59:19.475Z,23.70
2017-08-22T07:01:48.500Z,23.80
2017-08-22T07:04:16.745Z,23.80
2017-08-22T07:06:45.762Z,23.70
2017-08-22T07:09:14.396Z,23.70
2017-08-22T07:11:43.145Z,23.90
2017-08-22T07:14:11.402Z,24.20
2017-08-22T07:16:39.670Z,24.20
2017-08-22T07:19:08.854Z,23.80
2017-08-22T07:21:37.108Z,23.50
2017-08-22T07:24:05.399Z,23.50
2017-08-22T07:26:33.922Z,23.50
2017-08-22T07:29:02.807Z,23.50
2017-08-22T07:31:31.308Z,23.60
2017-08-22T07:34:01.172Z,24.00
2017-08-22T07:36:30.320Z,24.00
2017-08-22T07:38:58.635Z,24.30
2017-08-22T07:41:26.958Z,24.80
2017-08-22T07:43:55.242Z,25.40
2017-08-22T07:46:23.585Z,25.70
2017-08-22T07:48:51.823Z,25.80
2017-08-22T07:51:20.312Z,25.70
2017-08-22T07:53:48.637Z,25.60
2017-08-22T07:56:16.965Z,25.20
2017-08-22T07:58:45.333Z,25.20
2017-08-22T08:01:13.799Z,25.10
2017-08-22T08:03:42.168Z,25.00
2017-08-22T08:06:10.530Z,24.70
2017-08-22T08:08:38.954Z,24.10
2017-08-22T08:11:07.183Z,23.60
2017-08-22T08:13:35.431Z,23.30
2017-08-22T08:16:03.744Z,23.20
2017-08-22T08:18:31.984Z,22.90
2017-08-22T08:21:00.273Z,22.60
2017-08-22T08:23:28.793Z,22.50
2017-08-22T08:25:57.050Z,22.50
2017-08-22T08:28:25.276Z,22.40
2017-08-22T08:30:53.552Z,22.30
2017-08-22T08:33:21.791Z,22.20
2017-08-22T08:35:50.040Z,22.20
2017-08-22T08:38:18.466Z,22.20
2017-08-22T08:40:46.709Z,22.30
2017-08-22T08:43:14.979Z,22.30
2017-08-22T08:45:43.647Z,22.30
2017-08-22T08:48:12.561Z,22.30
2017-08-22T08:50:40.820Z,22.40
2017-08-22T08:53:09.228Z,22.10
2017-08-22T08:55:37.473Z,22.00
2017-08-22T08:58:05.704Z,22.10
2017-08-22T09:00:33.992Z,22.20
2017-08-22T09:03:02.469Z,22.40
2017-08-22T09:05:30.698Z,22.40
2017-08-22T09:07:58.961Z,22.40
2017-08-22T09:10:27.220Z,22.50
2017-08-22T09:12:55.536Z,22.50
2017-08-22T09:15:24.299Z,22.50
2017-08-22T09:17:52.599Z,22.50
2017-08-22T09:20:21.960Z,22.50
2017-08-22T09:22:50.249Z,22.80
2017-08-22T09:25:18.803Z,22.80
2017-08-22T09:27:47.303Z,22.70
2017-08-22T09:30:15.733Z,22.50
2017-08-22T09:32:44.295Z,22.50
2017-08-22T09:35:12.552Z,22.50
2017-08-22T09:37:41.059Z,22.60
2017-08-22T09:40:09.301Z,22.60
2017-08-22T09:42:37.764Z,22.80
2017-08-22T09:45:06.659Z,23.20
2017-08-22T09:47:37.212Z,23.60
2017-08-22T09:50:06.156Z,24.00
2017-08-22T09:52:34.433Z,24.20
2017-08-22T09:55:02.727Z,24.30
2017-08-22T09:57:31.165Z,24.30
2017-08-22T09:59:59.465Z,24.20
2017-08-22T10:02:57.492Z,24.40
2017-08-22T10:05:26.008Z,24.40
2017-08-22T10:07:54.718Z,24.50
2017-08-22T10:10:23.120Z,24.40
2017-08-22T10:12:51.470Z,24.30
2017-08-22T10:15:19.776Z,24.50
2017-08-22T10:17:48.257Z,24.60
2017-08-22T10:20:16.557Z,24.70
2017-08-22T10:22:44.855Z,24.80
2017-08-22T10:25:13.110Z,24.80
2017-08-22T10:27:41.604Z,24.90
2017-08-22T10:30:09.870Z,24.90
2017-08-22T10:32:38.111Z,24.90
2017-08-22T10:35:06.397Z,24.90
2017-08-22T10:37:34.738Z,25.00
2017-08-22T10:40:03.370Z,25.10
2017-08-22T10:42:31.808Z,25.10
2017-08-22T10:45:00.073Z,25.30
2017-08-22T10:47:28.317Z,25.50
2017-08-22T10:49:56.581Z,25.80
2017-08-22T10:54:59.368Z,26.50
2017-08-22T10:57:27.603Z,26.50
2017-08-22T10:59:56.206Z,26.30
2017-08-22T11:02:24.496Z,26.00
2017-08-22T11:04:52.720Z,25.70
2017-08-22T11:07:20.959Z,25.60
2017-08-22T11:09:49.988Z,25.40
2017-08-22T11:12:18.284Z,25.20
2017-08-22T11:14:46.660Z,25.10
2017-08-22T11:17:14.979Z,24.90
2017-08-22T11:19:43.315Z,24.70
2017-08-22T11:22:11.532Z,24.50
2017-08-22T11:24:39.839Z,24.30
2017-08-22T11:27:08.358Z,24.30
2017-08-22T11:29:36.696Z,24.20
2017-08-22T11:32:04.971Z,24.20
2017-08-22T11:34:33.218Z,24.10
2017-08-22T11:37:01.688Z,24.20
2017-08-22T11:39:29.977Z,24.20
2017-08-22T11:41:58.215Z,24.20
2017-08-22T11:44:26.472Z,24.20
2017-08-22T11:46:54.959Z,24.20
2017-08-22T11:49:23.232Z,24.20
2017-08-22T11:51:52.005Z,24.20
2017-08-22T11:54:20.516Z,24.10
2017-08-22T11:56:48.769Z,24.00
2017-08-22T11:59:17.008Z,23.90
2017-08-22T12:01:45.284Z,23.90
2017-08-22T12:04:13.524Z,23.80
2017-08-22T12:06:42.107Z,23.60
2017-08-22T12:09:10.455Z,23.60
2017-08-22T12:11:38.706Z,23.50
2017-08-22T12:14:06.949Z,23.50
2017-08-22T12:16:35.222Z,23.40
2017-08-22T12:19:03.932Z,23.30
2017-08-22T12:21:32.219Z,23.30
2017-08-22T12:24:00.669Z,23.30
2017-08-22T12:26:29.172Z,23.20
2017-08-22T12:28:57.416Z,23.20
2017-08-22T12:31:25.698Z,23.30
2017-08-22T12:33:54.147Z,23.20
2017-08-22T12:36:22.402Z,23.20
2017-08-22T12:38:50.689Z,23.30
2017-08-22T12:41:18.912Z,23.30
2017-08-22T12:43:47.152Z,23.40
2017-08-22T12:46:15.414Z,23.40
2017-08-22T12:48:43.655Z,23.50
2017-08-22T12:51:11.888Z,23.60
2017-08-22T12:53:40.186Z,23.80
2017-08-22T12:56:08.442Z,24.00
2017-08-22T12:58:36.671Z,24.00
2017-08-22T13:01:04.921Z,24.10
2017-08-22T13:03:33.163Z,24.00
2017-08-22T13:06:01.391Z,23.90
2017-08-22T13:08:29.656Z,23.90
2017-08-22T13:10:57.902Z,23.80
2017-08-22T13:13:26.142Z,23.90
2017-08-22T13:15:55.314Z,23.80
2017-08-22T13:18:23.579Z,23.70
2017-08-22T13:20:51.838Z,23.60
2017-08-22T13:23:20.087Z,23.50
2017-08-22T13:25:48.341Z,23.50
2017-08-22T13:28:16.612Z,23.50
2017-08-22T13:30:45.605Z,23.60
2017-08-22T13:33:14.256Z,23.80
2017-08-22T13:35:42.508Z,24.00
2017-08-22T13:38:10.800Z,24.20
2017-08-22T13:40:39.065Z,24.40
2017-08-22T13:43:07.328Z,24.50
2017-08-22T13:45:35.617Z,24.40
2017-08-22T13:48:03.859Z,24.30
2017-08-22T13:50:32.135Z,24.10
2017-08-22T13:53:00.629Z,23.90
2017-08-22T13:55:28.864Z,23.60
2017-08-22T13:57:57.111Z,23.30
2017-08-22T14:00:25.633Z,23.00
2017-08-22T14:02:53.940Z,22.90
2017-08-22T14:05:22.323Z,23.00
2017-08-22T14:07:50.601Z,23.00
2017-08-22T14:10:18.866Z,22.80
2017-08-22T14:12:47.156Z,22.90
2017-08-22T14:15:15.524Z,23.00
2017-08-22T14:17:43.765Z,23.20
2017-08-22T14:20:12.024Z,23.30
2017-08-22T14:22:40.316Z,23.30
2017-08-22T14:25:08.855Z,23.30
2017-08-22T14:27:37.255Z,23.30
2017-08-22T14:30:05.759Z,23.30
2017-08-22T14:32:34.030Z,23.30
2017-08-22T14:35:02.459Z,23.20
2017-08-22T14:37:30.718Z,23.20
2017-08-22T14:39:58.964Z,23.30
2017-08-22T14:42:27.271Z,23.40
2017-08-22T14:44:55.848Z,23.40
2017-08-22T14:47:24.131Z,23.40
2017-08-22T14:49:52.369Z,23.40
2017-08-22T14:52:24.754Z,23.50
2017-08-22T14:54:53.137Z,23.50
2017-08-22T14:57:21.628Z,23.50
2017-08-22T14:59:49.888Z,23.60
2017-08-22T15:02:18.132Z,23.70
2017-08-22T15:04:46.980Z,23.50
2017-08-22T15:07:15.221Z,23.10
2017-08-22T15:09:45.476Z,22.90
2017-08-22T15:12:13.935Z,22.80
2017-08-22T15:14:42.239Z,22.70
2017-08-22T15:17:10.519Z,22.70
2017-08-22T15:19:43.948Z,22.60
2017-08-22T15:22:12.716Z,22.40
2017-08-22T15:24:41.416Z,22.40
2017-08-22T15:27:09.669Z,22.20
2017-08-22T15:29:37.916Z,22.00
2017-08-22T15:32:07.663Z,22.00
2017-08-22T15:34:35.924Z,22.00
2017-08-22T15:37:04.201Z,22.00
2017-08-22T15:39:32.580Z,22.10
2017-08-22T15:42:00.839Z,22.10
2017-08-22T15:44:29.068Z,22.20
2017-08-22T15:46:57.351Z,22.10
2017-08-22T15:49:25.647Z,22.20
2017-08-22T15:51:53.920Z,22.30
2017-08-22T15:54:22.147Z,22.50
2017-08-22T15:56:50.420Z,22.50
2017-08-22T15:59:18.660Z,22.40
2017-08-22T16:01:46.938Z,22.60
2017-08-22T16:04:15.217Z,22.50
2017-08-22T16:06:43.492Z,22.50
2017-08-22T16:09:11.750Z,22.40
2017-08-22T16:11:40.168Z,22.40
2017-08-22T16:14:08.399Z,22.10
2017-08-22T16:16:36.681Z,22.10
2017-08-22T16:19:05.110Z,22.00
2017-08-22T16:21:33.339Z,21.90
2017-08-22T16:24:01.589Z,21.90
2017-08-22T16:26:29.967Z,21.80
2017-08-22T16:28:58.198Z,21.60
2017-08-22T16:31:26.479Z,21.70
2017-08-22T16:33:54.769Z,21.70
2017-08-22T16:36:23.236Z,21.70
2017-08-22T16:38:51.469Z,21.60
2017-08-22T16:41:19.808Z,21.40
2017-08-22T16:43:48.756Z,21.20
2017-08-22T16:46:17.227Z,21.00
2017-08-22T16:48:45.522Z,21.10
2017-08-22T16:51:13.761Z,21.10
2017-08-22T16:53:42.009Z,21.10
2017-08-22T16:56:10.352Z,21.20
2017-08-22T16:58:38.611Z,21.30
2017-08-22T17:01:06.929Z,21.20
2017-08-22T17:03:35.233Z,21.10
2017-08-22T17:06:03.499Z,21.00
2017-08-22T17:08:32.024Z,20.90
2017-08-22T17:11:00.308Z,20.90
2017-08-22T17:13:28.548Z,20.90
2017-08-22T17:15:56.856Z,20.80
2017-08-22T17:18:25.376Z,20.60
2017-08-22T17:20:53.617Z,20.60
2017-08-22T17:23:21.850Z,20.60
2017-08-22T17:25:50.249Z,20.70
2017-08-22T17:28:18.473Z,20.80
2017-08-22T17:30:46.767Z,20.90
2017-08-22T17:33:15.060Z,20.90
2017-08-22T17:35:43.299Z,20.90
2017-08-22T17:38:11.539Z,20.90
2017-08-22T17:40:39.798Z,20.80
2017-08-22T17:43:08.223Z,20.80
2017-08-22T17:45:36.443Z,20.60
2017-08-22T17:48:04.821Z,20.50
2017-08-22T17:50:33.064Z,20.40
2017-08-22T17:53:01.335Z,20.30
2017-08-22T17:55:29.662Z,20.30
2017-08-22T17:57:57.923Z,20.30
2017-08-22T18:00:26.159Z,20.40
2017-08-22T18:02:54.441Z,20.30
2017-08-22T18:05:22.761Z,20.20
2017-08-22T18:07:51.234Z,20.20
2017-08-22T18:10:19.640Z,20.30
2017-08-22T18:12:48.112Z,20.20
2017-08-22T18:15:16.612Z,20.30
2017-08-22T18:17:45.125Z,20.30
2017-08-22T18:20:13.368Z,20.30
2017-08-22T18:22:41.602Z,20.20
2017-08-22T18:25:09.905Z,20.10
2017-08-22T18:27:38.228Z,20.10
2017-08-22T18:30:06.545Z,20.10
2017-08-22T18:32:34.839Z,20.10
2017-08-22T18:35:03.090Z,20.20
2017-08-22T18:37:31.339Z,20.10
2017-08-22T18:39:59.630Z,20.10
2017-08-22T18:42:27.936Z,20.00
2017-08-22T18:44:56.172Z,19.80
2017-08-22T18:47:24.678Z,19.80
2017-08-22T18:49:52.933Z,19.80
2017-08-22T18:52:21.179Z,19.80
2017-08-22T18:54:49.853Z,19.80
2017-08-22T18:57:18.092Z,19.70
2017-08-22T18:59:46.330Z,19.80
2017-08-22T19:02:14.644Z,19.90
2017-08-22T19:04:43.142Z,20.00
2017-08-22T19:07:11.403Z,20.20
2017-08-22T19:09:39.813Z,20.40
2017-08-22T19:12:08.869Z,20.60
2017-08-22T19:14:37.262Z,20.80
2017-08-22T19:17:05.838Z,20.90
2017-08-22T19:19:34.097Z,21.10
2017-08-22T19:22:02.473Z,21.20
2017-08-22T19:24:30.742Z,21.30
2017-08-22T19:26:59.152Z,21.10
2017-08-22T19:29:27.413Z,21.10
2017-08-22T19:31:55.801Z,20.80
2017-08-22T19:34:24.067Z,20.70
2017-08-22T19:36:52.305Z,20.50
2017-08-22T19:39:20.575Z,20.40
2017-08-22T19:41:49.068Z,20.10
2017-08-22T19:44:17.300Z,19.80
2017-08-22T19:46:45.946Z,19.50
2017-08-22T19:49:14.176Z,19.40
2017-08-22T19:51:42.419Z,19.30
2017-08-22T19:54:10.708Z,19.20
2017-08-22T19:56:38.945Z,19.30
2017-08-22T19:59:07.193Z,19.40
2017-08-22T20:01:35.484Z,19.40
2017-08-22T20:04:03.821Z,19.40
2017-08-22T20:06:32.056Z,19.20
2017-08-22T20:09:01.113Z,19.20
2017-08-22T20:11:29.481Z,19.20
2017-08-22T20:13:58.053Z,19.20
2017-08-22T20:16:26.332Z,19.30
2017-08-22T20:18:54.579Z,19.40
2017-08-22T20:21:22.847Z,19.50
2017-08-22T20:23:51.130Z,19.60
2017-08-22T20:26:19.426Z,19.70
2017-08-22T20:28:48.606Z,19.70
2017-08-22T20:31:17.655Z,19.50
2017-08-22T20:33:46.047Z,19.30
2017-08-22T20:36:14.297Z,19.30
2017-08-22T20:38:42.551Z,19.40
2017-08-22T20:41:10.808Z,19.50
2017-08-22T20:43:39.062Z,19.70
2017-08-22T20:46:07.448Z,19.70
2017-08-22T20:48:35.691Z,19.80
2017-08-22T20:51:03.933Z,19.90
2017-08-22T20:53:32.293Z,20.00
2017-08-22T20:56:00.906Z,20.10
2017-08-22T20:58:29.153Z,20.20
2017-08-22T21:00:57.429Z,20.20
2017-08-22T21:03:25.662Z,20.20
2017-08-22T21:05:53.896Z,20.00
2017-08-22T21:08:22.204Z,19.80
2017-08-22T21:10:50.446Z,19.60
2017-08-22T21:13:18.973Z,19.60
2017-08-22T21:15:47.245Z,19.40
2017-08-22T21:18:15.495Z,19.40
2017-08-22T21:20:43.740Z,19.30
2017-08-22T21:23:12.241Z,19.30
2017-08-22T21:25:40.473Z,19.30
2017-08-22T21:28:08.707Z,19.20
2017-08-22T21:30:37.006Z,19.20
2017-08-22T21:33:05.235Z,19.20
2017-08-22T21:35:33.468Z,19.10
2017-08-22T21:38:01.717Z,18.90
2017-08-22T21:40:29.959Z,18.70
2017-08-22T21:42:58.211Z,18.60
2017-08-22T21:45:26.472Z,18.70
2017-08-22T21:47:55.216Z,18.80
2017-08-22T21:50:23.456Z,18.90
2017-08-22T21:52:52.548Z,18.90
2017-08-22T21:55:20.944Z,19.00
2017-08-22T21:57:49.184Z,19.20
2017-08-22T22:00:17.445Z,19.30
2017-08-22T22:02:45.668Z,19.40
2017-08-22T22:05:13.912Z,19.50
2017-08-22T22:07:42.181Z,19.50
2017-08-22T22:10:10.642Z,19.40
2017-08-22T22:12:38.904Z,19.30
2017-08-22T22:15:07.512Z,19.10
2017-08-22T22:17:36.092Z,19.00
2017-08-22T22:20:04.358Z,19.00
2017-08-22T22:22:32.947Z,19.00
2017-08-22T22:25:01.430Z,19.10
2017-08-22T22:27:29.671Z,19.20
2017-08-22T22:29:57.943Z,19.40
2017-08-22T22:32:26.183Z,19.60
2017-08-22T22:34:54.447Z,19.50
2017-08-22T22:37:23.592Z,19.40
2017-08-22T22:39:51.835Z,19.40
2017-08-22T22:42:20.280Z,19.30
2017-08-22T22:44:48.541Z,19.20
2017-08-22T22:47:17.001Z,19.10
2017-08-22T22:49:45.252Z,19.00
2017-08-22T22:52:13.516Z,18.90
2017-08-22T22:54:42.372Z,18.30
2017-08-22T22:57:10.606Z,18.30
2017-08-22T22:59:38.887Z,18.10
2017-08-22T23:02:07.122Z,18.10
2017-08-22T23:04:35.369Z,17.90
2017-08-22T23:07:03.905Z,17.70
2017-08-22T23:09:32.135Z,17.60
2017-08-22T23:12:00.380Z,17.70
2017-08-22T23:14:28.693Z,17.70
2017-08-22T23:16:56.925Z,17.90
2017-08-22T23:19:25.161Z,18.00
2017-08-22T23:21:53.439Z,18.20
2017-08-22T23:24:21.676Z,18.30
2017-08-22T23:26:49.912Z,18.30
2017-08-22T23:29:18.424Z,18.30
2017-08-22T23:31:46.656Z,18.10
2017-08-22T23:34:14.908Z,18.00
2017-08-22T23:36:43.513Z,17.90
2017-08-22T23:39:11.985Z,17.90
2017-08-22T23:41:40.426Z,17.90
2017-08-22T23:44:08.699Z,18.00
2017-08-22T23:46:36.940Z,18.10
2017-08-22T23:49:05.177Z,18.20
2017-08-22T23:51:33.455Z,18.30
2017-08-22T23:54:01.702Z,18.20
2017-08-22T23:56:29.938Z,18.30
2017-08-22T23:58:58.826Z,18.30
